sensor_id;sensor_type;location;lat;lon;timestamp;P1;durP1;ratioP1;P2;durP2;ratioP2
55417;SDS011;41287;47.554;7.844;2022-11-09T00:01:19;1.40;;;0.90;;
55417;SDS011;41287;47.554;7.844;2022-11-09T00:03:45;1.92;;;0.90;;
55417;SDS011;41287;47.554;7.844;2022-11-09T00:06:10;1.50;;;0.80;;
55417;SDS011;41287;47.554;7.844;2022-11-09T00:08:36;1.88;;;1.00;;
55417;SDS011;41287;47.554;7.844;2022-11-09T00:11:06;1.33;;;0.95;;
55417;SDS011;41287;47.554;7.844;2022-11-09T00:13:37;2.53;;;0.98;;
55417;SDS011;41287;47.554;7.844;2022-11-09T00:16:04;1.92;;;1.20;;
55417;SDS011;41287;47.554;7.844;2022-11-09T00:18:33;1.75;;;1.05;;
55417;SDS011;41287;47.554;7.844;2022-11-09T00:21:03;1.90;;;1.40;;
55417;SDS011;41287;47.554;7.844;2022-11-09T00:23:39;2.33;;;1.20;;
55417;SDS011;41287;47.554;7.844;2022-11-09T00:26:05;2.88;;;1.20;;
55417;SDS011;41287;47.554;7.844;2022-11-09T00:28:32;3.72;;;1.10;;
55417;SDS011;41287;47.554;7.844;2022-11-09T00:31:00;1.50;;;1.05;;
55417;SDS011;41287;47.554;7.844;2022-11-09T00:33:26;1.98;;;1.13;;
55417;SDS011;41287;47.554;7.844;2022-11-09T00:35:52;2.28;;;1.13;;
55417;SDS011;41287;47.554;7.844;2022-11-09T00:38:18;1.63;;;1.15;;
55417;SDS011;41287;47.554;7.844;2022-11-09T00:40:43;2.67;;;1.15;;
55417;SDS011;41287;47.554;7.844;2022-11-09T00:43:09;2.83;;;1.15;;
55417;SDS011;41287;47.554;7.844;2022-11-09T00:45:34;1.17;;;0.90;;
55417;SDS011;41287;47.554;7.844;2022-11-09T00:48:00;2.80;;;1.25;;
55417;SDS011;41287;47.554;7.844;2022-11-09T00:50:25;1.30;;;0.90;;
55417;SDS011;41287;47.554;7.844;2022-11-09T00:52:50;1.77;;;0.90;;
55417;SDS011;41287;47.554;7.844;2022-11-09T00:55:16;2.03;;;1.10;;
55417;SDS011;41287;47.554;7.844;2022-11-09T00:57:41;2.28;;;0.98;;
55417;SDS011;41287;47.554;7.844;2022-11-09T01:00:07;1.73;;;1.00;;
55417;SDS011;41287;47.554;7.844;2022-11-09T01:02:32;2.70;;;1.10;;
55417;SDS011;41287;47.554;7.844;2022-11-09T01:04:59;2.53;;;1.02;;
55417;SDS011;41287;47.554;7.844;2022-11-09T01:07:25;3.03;;;1.02;;
55417;SDS011;41287;47.554;7.844;2022-11-09T01:09:50;1.65;;;1.13;;
55417;SDS011;41287;47.554;7.844;2022-11-09T01:12:15;1.83;;;1.10;;
55417;SDS011;41287;47.554;7.844;2022-11-09T01:14:41;1.50;;;1.10;;
55417;SDS011;41287;47.554;7.844;2022-11-09T01:17:06;3.38;;;1.23;;
55417;SDS011;41287;47.554;7.844;2022-11-09T01:19:31;3.38;;;1.00;;
55417;SDS011;41287;47.554;7.844;2022-11-09T01:21:57;1.70;;;1.10;;
55417;SDS011;41287;47.554;7.844;2022-11-09T01:24:22;1.52;;;1.02;;
55417;SDS011;41287;47.554;7.844;2022-11-09T01:26:48;2.33;;;1.10;;
55417;SDS011;41287;47.554;7.844;2022-11-09T01:29:13;2.67;;;1.20;;
55417;SDS011;41287;47.554;7.844;2022-11-09T01:31:38;2.42;;;1.00;;
55417;SDS011;41287;47.554;7.844;2022-11-09T01:34:03;2.15;;;1.20;;
55417;SDS011;41287;47.554;7.844;2022-11-09T01:36:31;1.73;;;0.95;;
55417;SDS011;41287;47.554;7.844;2022-11-09T01:38:56;1.88;;;0.88;;
55417;SDS011;41287;47.554;7.844;2022-11-09T01:41:23;2.38;;;1.20;;
55417;SDS011;41287;47.554;7.844;2022-11-09T01:46:49;1.70;;;1.08;;
55417;SDS011;41287;47.554;7.844;2022-11-09T01:51:53;2.60;;;1.40;;
55417;SDS011;41287;47.554;7.844;2022-11-09T01:54:28;2.10;;;0.95;;
55417;SDS011;41287;47.554;7.844;2022-11-09T01:56:56;2.35;;;1.10;;
55417;SDS011;41287;47.554;7.844;2022-11-09T01:59:28;1.80;;;1.02;;
55417;SDS011;41287;47.554;7.844;2022-11-09T02:01:57;1.67;;;1.00;;
55417;SDS011;41287;47.554;7.844;2022-11-09T02:04:35;1.27;;;0.90;;
55417;SDS011;41287;47.554;7.844;2022-11-09T02:07:04;1.67;;;1.00;;
55417;SDS011;41287;47.554;7.844;2022-11-09T02:09:32;2.25;;;1.08;;
55417;SDS011;41287;47.554;7.844;2022-11-09T02:12:00;3.42;;;1.40;;
55417;SDS011;41287;47.554;7.844;2022-11-09T02:14:25;1.35;;;0.93;;
55417;SDS011;41287;47.554;7.844;2022-11-09T02:16:53;1.50;;;0.98;;
55417;SDS011;41287;47.554;7.844;2022-11-09T02:19:18;1.40;;;1.08;;
55417;SDS011;41287;47.554;7.844;2022-11-09T02:21:44;1.70;;;1.20;;
55417;SDS011;41287;47.554;7.844;2022-11-09T02:24:15;1.92;;;0.98;;
55417;SDS011;41287;47.554;7.844;2022-11-09T02:26:46;1.88;;;1.00;;
55417;SDS011;41287;47.554;7.844;2022-11-09T02:29:13;1.60;;;1.10;;
55417;SDS011;41287;47.554;7.844;2022-11-09T02:31:43;2.08;;;0.90;;
55417;SDS011;41287;47.554;7.844;2022-11-09T02:34:14;1.85;;;1.00;;
55417;SDS011;41287;47.554;7.844;2022-11-09T02:36:42;2.80;;;1.08;;
55417;SDS011;41287;47.554;7.844;2022-11-09T02:39:07;1.77;;;1.10;;
55417;SDS011;41287;47.554;7.844;2022-11-09T02:41:35;1.60;;;1.02;;
55417;SDS011;41287;47.554;7.844;2022-11-09T02:44:08;2.50;;;0.95;;
55417;SDS011;41287;47.554;7.844;2022-11-09T02:46:34;1.15;;;0.80;;
55417;SDS011;41287;47.554;7.844;2022-11-09T02:49:00;2.75;;;1.02;;
55417;SDS011;41287;47.554;7.844;2022-11-09T02:51:27;3.08;;;1.15;;
55417;SDS011;41287;47.554;7.844;2022-11-09T02:53:54;1.20;;;0.88;;
55417;SDS011;41287;47.554;7.844;2022-11-09T02:56:20;1.77;;;1.10;;
55417;SDS011;41287;47.554;7.844;2022-11-09T02:58:46;1.77;;;1.00;;
55417;SDS011;41287;47.554;7.844;2022-11-09T03:01:11;2.22;;;1.00;;
55417;SDS011;41287;47.554;7.844;2022-11-09T03:03:40;2.63;;;0.70;;
55417;SDS011;41287;47.554;7.844;2022-11-09T03:06:05;1.65;;;0.90;;
55417;SDS011;41287;47.554;7.844;2022-11-09T03:08:30;2.78;;;1.20;;
55417;SDS011;41287;47.554;7.844;2022-11-09T03:11:00;2.42;;;1.02;;
55417;SDS011;41287;47.554;7.844;2022-11-09T03:13:26;1.67;;;0.93;;
55417;SDS011;41287;47.554;7.844;2022-11-09T03:15:51;1.60;;;0.90;;
55417;SDS011;41287;47.554;7.844;2022-11-09T03:18:18;1.60;;;1.13;;
55417;SDS011;41287;47.554;7.844;2022-11-09T03:20:44;1.70;;;1.02;;
55417;SDS011;41287;47.554;7.844;2022-11-09T03:23:09;1.83;;;1.13;;
55417;SDS011;41287;47.554;7.844;2022-11-09T03:25:35;1.80;;;1.08;;
55417;SDS011;41287;47.554;7.844;2022-11-09T03:28:02;1.63;;;1.05;;
55417;SDS011;41287;47.554;7.844;2022-11-09T03:30:29;1.70;;;0.90;;
55417;SDS011;41287;47.554;7.844;2022-11-09T03:33:04;1.60;;;1.00;;
55417;SDS011;41287;47.554;7.844;2022-11-09T03:35:34;4.03;;;0.90;;
55417;SDS011;41287;47.554;7.844;2022-11-09T03:38:03;0.90;;;0.80;;
55417;SDS011;41287;47.554;7.844;2022-11-09T03:40:29;3.03;;;0.90;;
55417;SDS011;41287;47.554;7.844;2022-11-09T03:42:54;2.10;;;1.00;;
55417;SDS011;41287;47.554;7.844;2022-11-09T03:45:20;1.85;;;0.82;;
55417;SDS011;41287;47.554;7.844;2022-11-09T03:47:45;3.58;;;1.48;;
55417;SDS011;41287;47.554;7.844;2022-11-09T03:50:12;2.72;;;1.08;;
55417;SDS011;41287;47.554;7.844;2022-11-09T03:52:39;2.38;;;1.00;;
55417;SDS011;41287;47.554;7.844;2022-11-09T03:55:05;1.85;;;0.90;;
55417;SDS011;41287;47.554;7.844;2022-11-09T03:57:30;1.83;;;1.00;;
55417;SDS011;41287;47.554;7.844;2022-11-09T03:59:56;2.28;;;1.00;;
55417;SDS011;41287;47.554;7.844;2022-11-09T04:02:21;1.27;;;1.00;;
55417;SDS011;41287;47.554;7.844;2022-11-09T04:04:47;1.40;;;1.10;;
55417;SDS011;41287;47.554;7.844;2022-11-09T04:07:12;2.50;;;1.38;;
55417;SDS011;41287;47.554;7.844;2022-11-09T04:09:38;2.20;;;1.00;;
55417;SDS011;41287;47.554;7.844;2022-11-09T04:12:04;1.38;;;0.93;;
55417;SDS011;41287;47.554;7.844;2022-11-09T04:14:29;2.00;;;1.05;;
55417;SDS011;41287;47.554;7.844;2022-11-09T04:16:55;0.90;;;0.70;;
55417;SDS011;41287;47.554;7.844;2022-11-09T04:19:20;1.25;;;0.85;;
55417;SDS011;41287;47.554;7.844;2022-11-09T04:21:46;0.93;;;0.70;;
55417;SDS011;41287;47.554;7.844;2022-11-09T04:24:12;1.92;;;1.15;;
55417;SDS011;41287;47.554;7.844;2022-11-09T04:26:39;1.90;;;1.10;;
55417;SDS011;41287;47.554;7.844;2022-11-09T04:29:05;2.17;;;1.00;;
55417;SDS011;41287;47.554;7.844;2022-11-09T04:31:30;1.95;;;0.93;;
55417;SDS011;41287;47.554;7.844;2022-11-09T04:33:56;1.65;;;0.90;;
55417;SDS011;41287;47.554;7.844;2022-11-09T04:36:21;0.77;;;0.73;;
55417;SDS011;41287;47.554;7.844;2022-11-09T04:38:47;1.52;;;0.93;;
55417;SDS011;41287;47.554;7.844;2022-11-09T04:41:12;1.13;;;0.90;;
55417;SDS011;41287;47.554;7.844;2022-11-09T04:43:38;1.75;;;0.90;;
55417;SDS011;41287;47.554;7.844;2022-11-09T04:46:03;1.45;;;1.00;;
55417;SDS011;41287;47.554;7.844;2022-11-09T04:48:29;1.33;;;0.98;;
55417;SDS011;41287;47.554;7.844;2022-11-09T04:51:02;2.25;;;1.15;;
55417;SDS011;41287;47.554;7.844;2022-11-09T04:53:30;1.08;;;0.80;;
55417;SDS011;41287;47.554;7.844;2022-11-09T04:55:57;1.65;;;1.33;;
55417;SDS011;41287;47.554;7.844;2022-11-09T04:58:22;1.13;;;1.02;;
55417;SDS011;41287;47.554;7.844;2022-11-09T05:00:48;2.28;;;1.00;;
55417;SDS011;41287;47.554;7.844;2022-11-09T05:03:13;2.17;;;1.20;;
55417;SDS011;41287;47.554;7.844;2022-11-09T05:05:39;1.77;;;1.00;;
55417;SDS011;41287;47.554;7.844;2022-11-09T05:08:06;6.63;;;1.13;;
55417;SDS011;41287;47.554;7.844;2022-11-09T05:10:32;9.45;;;1.10;;
55417;SDS011;41287;47.554;7.844;2022-11-09T05:13:02;6.75;;;0.90;;
55417;SDS011;41287;47.554;7.844;2022-11-09T05:15:28;2.08;;;0.90;;
55417;SDS011;41287;47.554;7.844;2022-11-09T05:17:54;2.00;;;0.80;;
55417;SDS011;41287;47.554;7.844;2022-11-09T05:20:20;1.65;;;1.00;;
55417;SDS011;41287;47.554;7.844;2022-11-09T05:22:48;2.58;;;0.90;;
55417;SDS011;41287;47.554;7.844;2022-11-09T05:25:32;0.77;;;0.60;;
55417;SDS011;41287;47.554;7.844;2022-11-09T05:27:58;2.53;;;1.13;;
55417;SDS011;41287;47.554;7.844;2022-11-09T05:30:23;0.80;;;0.60;;
55417;SDS011;41287;47.554;7.844;2022-11-09T05:32:49;2.38;;;1.05;;
55417;SDS011;41287;47.554;7.844;2022-11-09T05:35:14;2.85;;;1.00;;
55417;SDS011;41287;47.554;7.844;2022-11-09T05:37:40;1.48;;;0.98;;
55417;SDS011;41287;47.554;7.844;2022-11-09T05:40:06;2.30;;;1.02;;
55417;SDS011;41287;47.554;7.844;2022-11-09T05:42:33;1.35;;;0.93;;
55417;SDS011;41287;47.554;7.844;2022-11-09T05:44:58;1.58;;;1.00;;
55417;SDS011;41287;47.554;7.844;2022-11-09T05:47:25;1.33;;;0.80;;
55417;SDS011;41287;47.554;7.844;2022-11-09T05:49:50;2.17;;;1.10;;
55417;SDS011;41287;47.554;7.844;2022-11-09T05:52:15;2.70;;;0.85;;
55417;SDS011;41287;47.554;7.844;2022-11-09T05:54:41;1.85;;;0.88;;
55417;SDS011;41287;47.554;7.844;2022-11-09T05:57:06;2.25;;;0.80;;
55417;SDS011;41287;47.554;7.844;2022-11-09T05:59:31;1.50;;;1.00;;
55417;SDS011;41287;47.554;7.844;2022-11-09T06:01:59;3.40;;;1.25;;
55417;SDS011;41287;47.554;7.844;2022-11-09T06:04:24;3.00;;;0.90;;
55417;SDS011;41287;47.554;7.844;2022-11-09T06:06:49;2.15;;;1.05;;
55417;SDS011;41287;47.554;7.844;2022-11-09T06:09:14;2.45;;;1.13;;
55417;SDS011;41287;47.554;7.844;2022-11-09T06:11:40;1.80;;;0.73;;
55417;SDS011;41287;47.554;7.844;2022-11-09T06:14:05;2.92;;;1.00;;
55417;SDS011;41287;47.554;7.844;2022-11-09T06:16:31;2.58;;;0.90;;
55417;SDS011;41287;47.554;7.844;2022-11-09T06:18:56;4.18;;;1.10;;
55417;SDS011;41287;47.554;7.844;2022-11-09T06:21:21;2.75;;;0.93;;
55417;SDS011;41287;47.554;7.844;2022-11-09T06:23:46;1.73;;;1.08;;
55417;SDS011;41287;47.554;7.844;2022-11-09T06:26:12;3.80;;;1.05;;
55417;SDS011;41287;47.554;7.844;2022-11-09T06:28:38;1.98;;;1.00;;
55417;SDS011;41287;47.554;7.844;2022-11-09T06:31:06;1.98;;;1.10;;
55417;SDS011;41287;47.554;7.844;2022-11-09T06:33:35;3.72;;;1.40;;
55417;SDS011;41287;47.554;7.844;2022-11-09T06:36:03;2.97;;;1.02;;
55417;SDS011;41287;47.554;7.844;2022-11-09T06:38:28;3.30;;;1.10;;
55417;SDS011;41287;47.554;7.844;2022-11-09T06:40:55;4.20;;;1.33;;
55417;SDS011;41287;47.554;7.844;2022-11-09T06:43:22;2.05;;;1.20;;
55417;SDS011;41287;47.554;7.844;2022-11-09T06:45:48;4.50;;;1.30;;
55417;SDS011;41287;47.554;7.844;2022-11-09T06:48:13;4.97;;;1.27;;
55417;SDS011;41287;47.554;7.844;2022-11-09T06:50:39;3.40;;;1.58;;
55417;SDS011;41287;47.554;7.844;2022-11-09T06:53:05;4.78;;;1.13;;
55417;SDS011;41287;47.554;7.844;2022-11-09T06:55:32;6.75;;;1.48;;
55417;SDS011;41287;47.554;7.844;2022-11-09T06:57:59;3.75;;;1.42;;
55417;SDS011;41287;47.554;7.844;2022-11-09T07:00:28;5.90;;;1.48;;
55417;SDS011;41287;47.554;7.844;2022-11-09T07:02:54;4.60;;;1.30;;
55417;SDS011;41287;47.554;7.844;2022-11-09T07:05:19;4.38;;;1.48;;
55417;SDS011;41287;47.554;7.844;2022-11-09T07:07:44;2.75;;;1.40;;
55417;SDS011;41287;47.554;7.844;2022-11-09T07:10:10;3.17;;;1.38;;
55417;SDS011;41287;47.554;7.844;2022-11-09T07:12:35;3.22;;;1.27;;
55417;SDS011;41287;47.554;7.844;2022-11-09T07:15:01;5.03;;;1.67;;
55417;SDS011;41287;47.554;7.844;2022-11-09T07:17:28;5.05;;;1.50;;
55417;SDS011;41287;47.554;7.844;2022-11-09T07:19:58;2.85;;;1.27;;
55417;SDS011;41287;47.554;7.844;2022-11-09T07:22:26;2.65;;;1.23;;
55417;SDS011;41287;47.554;7.844;2022-11-09T07:24:52;6.10;;;1.30;;
55417;SDS011;41287;47.554;7.844;2022-11-09T07:27:17;3.97;;;1.15;;
55417;SDS011;41287;47.554;7.844;2022-11-09T07:29:43;2.17;;;1.30;;
55417;SDS011;41287;47.554;7.844;2022-11-09T07:32:08;4.25;;;1.35;;
55417;SDS011;41287;47.554;7.844;2022-11-09T07:34:33;2.85;;;1.38;;
55417;SDS011;41287;47.554;7.844;2022-11-09T07:36:59;2.78;;;1.40;;
55417;SDS011;41287;47.554;7.844;2022-11-09T07:39:24;3.80;;;1.27;;
55417;SDS011;41287;47.554;7.844;2022-11-09T07:41:50;3.65;;;1.25;;
55417;SDS011;41287;47.554;7.844;2022-11-09T07:44:19;1.85;;;1.10;;
55417;SDS011;41287;47.554;7.844;2022-11-09T07:46:47;2.80;;;1.30;;
55417;SDS011;41287;47.554;7.844;2022-11-09T07:49:14;3.58;;;1.40;;
55417;SDS011;41287;47.554;7.844;2022-11-09T07:51:40;3.63;;;1.30;;
55417;SDS011;41287;47.554;7.844;2022-11-09T07:54:06;3.35;;;1.27;;
55417;SDS011;41287;47.554;7.844;2022-11-09T07:56:32;4.47;;;1.10;;
55417;SDS011;41287;47.554;7.844;2022-11-09T07:58:57;4.88;;;1.30;;
55417;SDS011;41287;47.554;7.844;2022-11-09T08:01:22;4.07;;;1.40;;
55417;SDS011;41287;47.554;7.844;2022-11-09T08:03:48;3.92;;;1.17;;
55417;SDS011;41287;47.554;7.844;2022-11-09T08:06:13;4.53;;;1.30;;
55417;SDS011;41287;47.554;7.844;2022-11-09T08:08:44;7.32;;;1.30;;
55417;SDS011;41287;47.554;7.844;2022-11-09T08:11:10;1.98;;;1.00;;
55417;SDS011;41287;47.554;7.844;2022-11-09T08:13:35;4.60;;;1.38;;
55417;SDS011;41287;47.554;7.844;2022-11-09T08:16:01;2.70;;;1.50;;
55417;SDS011;41287;47.554;7.844;2022-11-09T08:18:27;2.15;;;1.00;;
55417;SDS011;41287;47.554;7.844;2022-11-09T08:20:54;2.78;;;1.10;;
55417;SDS011;41287;47.554;7.844;2022-11-09T08:23:20;2.50;;;1.10;;
55417;SDS011;41287;47.554;7.844;2022-11-09T08:25:46;2.20;;;1.20;;
55417;SDS011;41287;47.554;7.844;2022-11-09T08:28:12;4.57;;;1.48;;
55417;SDS011;41287;47.554;7.844;2022-11-09T08:30:40;2.13;;;1.27;;
55417;SDS011;41287;47.554;7.844;2022-11-09T08:33:06;4.03;;;1.15;;
55417;SDS011;41287;47.554;7.844;2022-11-09T08:35:31;4.43;;;1.50;;
55417;SDS011;41287;47.554;7.844;2022-11-09T08:37:59;2.78;;;1.23;;
55417;SDS011;41287;47.554;7.844;2022-11-09T08:40:28;2.10;;;1.10;;
55417;SDS011;41287;47.554;7.844;2022-11-09T08:43:00;5.15;;;1.27;;
55417;SDS011;41287;47.554;7.844;2022-11-09T08:45:33;5.55;;;1.42;;
55417;SDS011;41287;47.554;7.844;2022-11-09T08:48:00;3.40;;;1.42;;
55417;SDS011;41287;47.554;7.844;2022-11-09T08:50:27;2.70;;;1.20;;
55417;SDS011;41287;47.554;7.844;2022-11-09T08:52:53;3.38;;;1.33;;
55417;SDS011;41287;47.554;7.844;2022-11-09T08:55:18;2.17;;;1.20;;
55417;SDS011;41287;47.554;7.844;2022-11-09T08:57:44;4.07;;;1.20;;
55417;SDS011;41287;47.554;7.844;2022-11-09T09:00:09;2.33;;;1.05;;
55417;SDS011;41287;47.554;7.844;2022-11-09T09:02:35;1.55;;;1.08;;
55417;SDS011;41287;47.554;7.844;2022-11-09T09:05:00;3.30;;;1.25;;
55417;SDS011;41287;47.554;7.844;2022-11-09T09:07:26;1.95;;;0.90;;
55417;SDS011;41287;47.554;7.844;2022-11-09T09:09:51;4.10;;;1.10;;
55417;SDS011;41287;47.554;7.844;2022-11-09T09:12:17;2.33;;;1.02;;
55417;SDS011;41287;47.554;7.844;2022-11-09T09:14:42;4.10;;;1.02;;
55417;SDS011;41287;47.554;7.844;2022-11-09T09:17:08;2.75;;;1.00;;
55417;SDS011;41287;47.554;7.844;2022-11-09T09:19:34;2.38;;;1.20;;
55417;SDS011;41287;47.554;7.844;2022-11-09T09:22:01;4.50;;;1.33;;
55417;SDS011;41287;47.554;7.844;2022-11-09T09:24:27;2.97;;;1.10;;
55417;SDS011;41287;47.554;7.844;2022-11-09T09:26:52;3.55;;;1.23;;
55417;SDS011;41287;47.554;7.844;2022-11-09T09:29:17;3.10;;;1.02;;
55417;SDS011;41287;47.554;7.844;2022-11-09T09:31:43;1.65;;;0.95;;
55417;SDS011;41287;47.554;7.844;2022-11-09T09:34:08;3.63;;;1.60;;
55417;SDS011;41287;47.554;7.844;2022-11-09T09:36:35;4.28;;;0.93;;
55417;SDS011;41287;47.554;7.844;2022-11-09T09:39:01;3.00;;;1.20;;
55417;SDS011;41287;47.554;7.844;2022-11-09T09:41:48;1.83;;;1.10;;
55417;SDS011;41287;47.554;7.844;2022-11-09T09:44:30;2.55;;;1.23;;
55417;SDS011;41287;47.554;7.844;2022-11-09T09:47:14;2.83;;;1.08;;
55417;SDS011;41287;47.554;7.844;2022-11-09T09:55:56;1.60;;;0.90;;
55417;SDS011;41287;47.554;7.844;2022-11-09T09:58:28;2.42;;;1.15;;
55417;SDS011;41287;47.554;7.844;2022-11-09T10:01:56;1.63;;;1.00;;
55417;SDS011;41287;47.554;7.844;2022-11-09T10:04:00;1.52;;;0.90;;
55417;SDS011;41287;47.554;7.844;2022-11-09T10:19:59;3.95;;;1.23;;
55417;SDS011;41287;47.554;7.844;2022-11-09T10:25:20;2.20;;;0.90;;
55417;SDS011;41287;47.554;7.844;2022-11-09T10:27:50;2.35;;;1.10;;
55417;SDS011;41287;47.554;7.844;2022-11-09T10:30:19;2.10;;;1.08;;
55417;SDS011;41287;47.554;7.844;2022-11-09T10:32:47;3.13;;;1.10;;
55417;SDS011;41287;47.554;7.844;2022-11-09T10:35:28;3.60;;;1.52;;
55417;SDS011;41287;47.554;7.844;2022-11-09T10:37:58;3.63;;;1.40;;
55417;SDS011;41287;47.554;7.844;2022-11-09T10:40:27;3.30;;;1.30;;
55417;SDS011;41287;47.554;7.844;2022-11-09T10:42:58;2.78;;;1.17;;
55417;SDS011;41287;47.554;7.844;2022-11-09T10:45:31;4.60;;;1.50;;
55417;SDS011;41287;47.554;7.844;2022-11-09T10:47:58;5.78;;;1.20;;
55417;SDS011;41287;47.554;7.844;2022-11-09T10:50:41;6.43;;;1.60;;
55417;SDS011;41287;47.554;7.844;2022-11-09T10:58:35;2.17;;;1.10;;
55417;SDS011;41287;47.554;7.844;2022-11-09T11:01:14;4.13;;;1.50;;
55417;SDS011;41287;47.554;7.844;2022-11-09T11:03:43;4.43;;;1.50;;
55417;SDS011;41287;47.554;7.844;2022-11-09T11:06:14;4.80;;;1.70;;
55417;SDS011;41287;47.554;7.844;2022-11-09T11:08:42;4.03;;;1.30;;
55417;SDS011;41287;47.554;7.844;2022-11-09T11:11:27;4.45;;;1.63;;
55417;SDS011;41287;47.554;7.844;2022-11-09T11:19:03;6.40;;;1.90;;
55417;SDS011;41287;47.554;7.844;2022-11-09T11:21:29;4.15;;;1.90;;
55417;SDS011;41287;47.554;7.844;2022-11-09T11:24:15;3.95;;;1.60;;
55417;SDS011;41287;47.554;7.844;2022-11-09T11:29:36;3.35;;;1.48;;
55417;SDS011;41287;47.554;7.844;2022-11-09T11:32:10;5.05;;;1.67;;
55417;SDS011;41287;47.554;7.844;2022-11-09T11:34:39;6.10;;;1.50;;
55417;SDS011;41287;47.554;7.844;2022-11-09T11:37:08;6.00;;;1.77;;
55417;SDS011;41287;47.554;7.844;2022-11-09T11:39:49;6.28;;;1.80;;
55417;SDS011;41287;47.554;7.844;2022-11-09T11:50:29;3.92;;;1.48;;
55417;SDS011;41287;47.554;7.844;2022-11-09T11:53:08;4.93;;;1.63;;
55417;SDS011;41287;47.554;7.844;2022-11-09T12:01:28;5.43;;;1.33;;
55417;SDS011;41287;47.554;7.844;2022-11-09T12:12:18;5.30;;;1.63;;
55417;SDS011;41287;47.554;7.844;2022-11-09T12:17:59;4.10;;;1.55;;
55417;SDS011;41287;47.554;7.844;2022-11-09T12:20:42;8.52;;;1.88;;
55417;SDS011;41287;47.554;7.844;2022-11-09T12:23:19;4.88;;;1.63;;
55417;SDS011;41287;47.554;7.844;2022-11-09T12:31:16;7.50;;;2.00;;
55417;SDS011;41287;47.554;7.844;2022-11-09T12:33:49;7.80;;;2.03;;
55417;SDS011;41287;47.554;7.844;2022-11-09T12:36:36;6.32;;;1.95;;
55417;SDS011;41287;47.554;7.844;2022-11-09T12:41:42;4.82;;;1.70;;
55417;SDS011;41287;47.554;7.844;2022-11-09T12:44:26;4.97;;;1.55;;
55417;SDS011;41287;47.554;7.844;2022-11-09T12:47:00;5.63;;;1.98;;
55417;SDS011;41287;47.554;7.844;2022-11-09T12:49:37;6.68;;;1.50;;
55417;SDS011;41287;47.554;7.844;2022-11-09T12:52:05;5.82;;;1.83;;
55417;SDS011;41287;47.554;7.844;2022-11-09T12:54:34;9.80;;;1.85;;
55417;SDS011;41287;47.554;7.844;2022-11-09T12:57:05;3.95;;;1.30;;
55417;SDS011;41287;47.554;7.844;2022-11-09T12:59:33;4.22;;;1.40;;
55417;SDS011;41287;47.554;7.844;2022-11-09T13:02:01;5.90;;;1.83;;
55417;SDS011;41287;47.554;7.844;2022-11-09T13:04:28;7.78;;;1.90;;
55417;SDS011;41287;47.554;7.844;2022-11-09T13:12:17;6.35;;;1.83;;
55417;SDS011;41287;47.554;7.844;2022-11-09T13:15:19;7.47;;;1.80;;
55417;SDS011;41287;47.554;7.844;2022-11-09T13:17:58;4.97;;;1.70;;
55417;SDS011;41287;47.554;7.844;2022-11-09T13:23:01;4.97;;;1.85;;
55417;SDS011;41287;47.554;7.844;2022-11-09T13:25:48;7.40;;;1.90;;
55417;SDS011;41287;47.554;7.844;2022-11-09T13:30:57;6.25;;;1.98;;
55417;SDS011;41287;47.554;7.844;2022-11-09T13:33:27;6.40;;;2.05;;
55417;SDS011;41287;47.554;7.844;2022-11-09T13:38:33;6.20;;;2.33;;
55417;SDS011;41287;47.554;7.844;2022-11-09T13:41:00;6.45;;;2.50;;
55417;SDS011;41287;47.554;7.844;2022-11-09T13:43:28;10.18;;;3.17;;
55417;SDS011;41287;47.554;7.844;2022-11-09T13:45:59;5.15;;;2.55;;
55417;SDS011;41287;47.554;7.844;2022-11-09T13:48:34;8.25;;;3.35;;
55417;SDS011;41287;47.554;7.844;2022-11-09T13:51:04;8.90;;;3.47;;
55417;SDS011;41287;47.554;7.844;2022-11-09T13:56:14;7.40;;;3.45;;
55417;SDS011;41287;47.554;7.844;2022-11-09T13:58:43;9.95;;;3.80;;
55417;SDS011;41287;47.554;7.844;2022-11-09T14:01:29;12.15;;;3.80;;
55417;SDS011;41287;47.554;7.844;2022-11-09T14:03:56;9.80;;;3.97;;
55417;SDS011;41287;47.554;7.844;2022-11-09T14:06:22;7.65;;;3.60;;
55417;SDS011;41287;47.554;7.844;2022-11-09T14:08:47;9.68;;;4.15;;
55417;SDS011;41287;47.554;7.844;2022-11-09T14:17:05;9.57;;;3.85;;
55417;SDS011;41287;47.554;7.844;2022-11-09T14:19:49;8.43;;;3.35;;
55417;SDS011;41287;47.554;7.844;2022-11-09T14:22:23;10.82;;;4.05;;
55417;SDS011;41287;47.554;7.844;2022-11-09T14:24:54;9.55;;;3.15;;
55417;SDS011;41287;47.554;7.844;2022-11-09T14:27:20;8.57;;;3.50;;
55417;SDS011;41287;47.554;7.844;2022-11-09T14:29:53;10.30;;;4.18;;
55417;SDS011;41287;47.554;7.844;2022-11-09T14:34:49;13.55;;;4.22;;
55417;SDS011;41287;47.554;7.844;2022-11-09T14:37:18;9.75;;;3.70;;
55417;SDS011;41287;47.554;7.844;2022-11-09T14:39:48;7.55;;;3.33;;
55417;SDS011;41287;47.554;7.844;2022-11-09T14:42:18;8.13;;;3.53;;
55417;SDS011;41287;47.554;7.844;2022-11-09T14:44:47;9.23;;;3.90;;
55417;SDS011;41287;47.554;7.844;2022-11-09T14:47:14;10.98;;;3.80;;
55417;SDS011;41287;47.554;7.844;2022-11-09T14:49:42;8.93;;;3.45;;
55417;SDS011;41287;47.554;7.844;2022-11-09T14:52:11;10.02;;;3.70;;
55417;SDS011;41287;47.554;7.844;2022-11-09T14:54:40;14.02;;;3.55;;
55417;SDS011;41287;47.554;7.844;2022-11-09T14:57:07;10.90;;;3.75;;
55417;SDS011;41287;47.554;7.844;2022-11-09T14:59:37;8.68;;;3.17;;
55417;SDS011;41287;47.554;7.844;2022-11-09T15:02:08;11.95;;;3.47;;
55417;SDS011;41287;47.554;7.844;2022-11-09T15:04:52;10.30;;;3.67;;
55417;SDS011;41287;47.554;7.844;2022-11-09T15:07:26;8.73;;;3.38;;
55417;SDS011;41287;47.554;7.844;2022-11-09T15:09:59;11.48;;;4.00;;
55417;SDS011;41287;47.554;7.844;2022-11-09T15:12:32;11.98;;;4.00;;
55417;SDS011;41287;47.554;7.844;2022-11-09T15:15:03;8.43;;;3.50;;
55417;SDS011;41287;47.554;7.844;2022-11-09T15:17:31;9.77;;;3.35;;
55417;SDS011;41287;47.554;7.844;2022-11-09T15:27:42;13.00;;;3.17;;
55417;SDS011;41287;47.554;7.844;2022-11-09T15:30:25;7.13;;;3.25;;
55417;SDS011;41287;47.554;7.844;2022-11-09T15:32:52;8.35;;;3.30;;
55417;SDS011;41287;47.554;7.844;2022-11-09T15:35:17;8.02;;;3.10;;
55417;SDS011;41287;47.554;7.844;2022-11-09T15:37:47;11.55;;;3.45;;
55417;SDS011;41287;47.554;7.844;2022-11-09T15:40:16;8.43;;;2.92;;
55417;SDS011;41287;47.554;7.844;2022-11-09T15:42:44;11.60;;;3.65;;
55417;SDS011;41287;47.554;7.844;2022-11-09T15:45:12;7.78;;;3.25;;
55417;SDS011;41287;47.554;7.844;2022-11-09T15:47:48;8.63;;;3.73;;
55417;SDS011;41287;47.554;7.844;2022-11-09T15:50:17;9.70;;;3.60;;
55417;SDS011;41287;47.554;7.844;2022-11-09T15:52:45;10.77;;;3.85;;
55417;SDS011;41287;47.554;7.844;2022-11-09T15:55:11;8.05;;;2.88;;
55417;SDS011;41287;47.554;7.844;2022-11-09T15:57:40;7.22;;;3.00;;
55417;SDS011;41287;47.554;7.844;2022-11-09T16:00:10;10.07;;;3.40;;
55417;SDS011;41287;47.554;7.844;2022-11-09T16:02:36;12.80;;;4.22;;
55417;SDS011;41287;47.554;7.844;2022-11-09T16:05:02;8.55;;;3.03;;
55417;SDS011;41287;47.554;7.844;2022-11-09T16:07:27;7.50;;;3.20;;
55417;SDS011;41287;47.554;7.844;2022-11-09T16:09:53;9.38;;;3.72;;
55417;SDS011;41287;47.554;7.844;2022-11-09T16:12:18;8.95;;;3.80;;
55417;SDS011;41287;47.554;7.844;2022-11-09T16:14:43;10.02;;;3.40;;
55417;SDS011;41287;47.554;7.844;2022-11-09T16:17:09;11.75;;;3.53;;
55417;SDS011;41287;47.554;7.844;2022-11-09T16:19:34;9.02;;;3.70;;
55417;SDS011;41287;47.554;7.844;2022-11-09T16:22:03;8.10;;;2.92;;
55417;SDS011;41287;47.554;7.844;2022-11-09T16:24:30;6.55;;;3.10;;
55417;SDS011;41287;47.554;7.844;2022-11-09T16:26:56;12.38;;;3.22;;
55417;SDS011;41287;47.554;7.844;2022-11-09T16:29:25;7.63;;;2.80;;
55417;SDS011;41287;47.554;7.844;2022-11-09T16:31:52;7.63;;;3.22;;
55417;SDS011;41287;47.554;7.844;2022-11-09T16:34:18;6.97;;;3.20;;
55417;SDS011;41287;47.554;7.844;2022-11-09T16:36:44;7.28;;;2.83;;
55417;SDS011;41287;47.554;7.844;2022-11-09T16:39:10;8.93;;;3.10;;
55417;SDS011;41287;47.554;7.844;2022-11-09T16:41:41;8.27;;;3.20;;